Time;durP1;ratioP1;P1;durP2;ratioP2;P2;SDS_P1;SDS_P2;PMS_P1;PMS_P2;Temp;Humidity;BMP_temperature;BMP_pressure;BME280_temperature;BME280_humidity;BME280_pressure;Samples;Min_cycle;Max_cycle;Signal;HPM_P1;HPM_P2
2022/07/17 00:02:14;;;;;;;9.23;3.03;;;;;;;13.49;63.45;100336.38;5098536;27;20068;-58
2022/07/17 00:04:40;;;;;;;10.20;3.10;;;;;;;13.48;63.02;100334.75;5117509;27;20039;-58
2022/07/17 00:07:05;;;;;;;6.80;2.63;;;;;;;13.35;63.48;100334.94;5104086;27;20064;-58
2022/07/17 00:09:31;;;;;;;8.15;2.95;;;;;;;13.30;63.25;100332.16;5108369;27;20039;-58
2022/07/17 00:11:57;;;;;;;10.52;3.03;;;;;;;13.30;63.44;100334.84;5112060;27;20080;-58
2022/07/17 00:14:22;;;;;;;10.38;3.20;;;;;;;13.51;63.14;100326.19;5070296;28;20023;-58
2022/07/17 00:16:47;;;;;;;8.10;2.83;;;;;;;13.54;63.60;100323.00;5110525;27;20105;-58
2022/07/17 00:19:13;;;;;;;8.63;2.83;;;;;;;13.61;63.16;100324.78;5106876;28;20675;-58
2022/07/17 00:21:38;;;;;;;14.75;3.55;;;;;;;13.55;63.09;100324.66;5108206;27;20423;-58
2022/07/17 00:24:06;;;;;;;12.27;3.08;;;;;;;13.58;63.23;100324.19;5114249;27;20027;-58
2022/07/17 00:26:32;;;;;;;8.93;3.10;;;;;;;13.53;63.21;100321.38;5105269;28;20053;-57
2022/07/17 00:28:57;;;;;;;8.15;3.17;;;;;;;13.58;63.65;100321.50;5071385;28;20110;-57
2022/07/17 00:31:22;;;;;;;7.20;3.22;;;;;;;13.54;63.32;100320.31;5105699;28;20027;-57
2022/07/17 00:33:48;;;;;;;7.90;3.00;;;;;;;13.32;63.14;100321.97;5109319;27;20462;-57
2022/07/17 00:36:13;;;;;;;9.02;3.00;;;;;;;13.27;63.97;100321.84;5105095;27;20470;-56
2022/07/17 00:38:39;;;;;;;9.02;2.80;;;;;;;13.21;64.51;100320.06;5104710;28;20027;-57
2022/07/17 00:41:04;;;;;;;8.82;2.90;;;;;;;13.23;64.37;100326.84;5106607;28;20028;-56
2022/07/17 00:43:30;;;;;;;9.15;3.03;;;;;;;13.24;65.25;100324.97;5107279;28;20032;-57
2022/07/17 00:46:00;;;;;;;10.30;2.75;;;;;;;13.16;66.78;100321.56;5088307;28;20073;-58
2022/07/17 00:48:25;;;;;;;6.85;3.10;;;;;;;12.94;66.89;100315.13;5103084;28;20036;-57
2022/07/17 00:50:51;;;;;;;10.75;3.08;;;;;;;12.80;66.64;100321.75;5105373;28;20128;-57
2022/07/17 00:53:16;;;;;;;10.18;3.40;;;;;;;12.65;66.68;100314.91;5105508;28;20024;-57
2022/07/17 00:55:41;;;;;;;9.57;2.90;;;;;;;12.48;67.35;100312.06;5107225;28;20110;-56
2022/07/17 00:58:07;;;;;;;9.43;3.00;;;;;;;12.61;66.47;100305.69;5103187;28;20017;-59
2022/07/17 01:00:33;;;;;;;10.73;2.90;;;;;;;12.63;66.75;100298.22;5108300;28;20039;-58
2022/07/17 01:02:58;;;;;;;8.10;3.25;;;;;;;12.68;67.09;100303.72;5112297;28;20039;-58
2022/07/17 01:05:23;;;;;;;8.90;3.17;;;;;;;12.62;67.10;100301.94;5118112;28;20021;-58
2022/07/17 01:07:49;;;;;;;9.68;3.17;;;;;;;12.82;66.72;100298.13;5106051;28;20016;-58
2022/07/17 01:10:16;;;;;;;12.15;2.92;;;;;;;12.76;66.16;100293.69;5107196;28;20032;-58
2022/07/17 01:12:42;;;;;;;11.95;3.45;;;;;;;12.69;67.21;100304.53;5114182;28;20020;-58
2022/07/17 01:15:09;;;;;;;11.63;3.38;;;;;;;12.57;66.90;100296.41;5102468;28;20039;-58
2022/07/17 01:17:35;;;;;;;11.38;3.42;;;;;;;12.52;67.29;100299.78;5100961;28;20047;-58
2022/07/17 01:20:01;;;;;;;11.02;3.47;;;;;;;12.24;67.91;100300.41;5088397;28;20418;-58
2022/07/17 01:22:27;;;;;;;8.38;2.90;;;;;;;12.34;67.68;100297.16;5110267;27;20027;-58
2022/07/17 01:24:52;;;;;;;7.65;3.05;;;;;;;12.36;67.98;100299.63;5105678;27;20028;-58
2022/07/17 01:27:17;;;;;;;8.75;3.50;;;;;;;12.26;68.11;100303.69;5091012;27;20024;-58
2022/07/17 01:29:43;;;;;;;11.75;3.50;;;;;;;12.35;69.84;100297.97;5103996;27;20035;-58
2022/07/17 01:32:08;;;;;;;8.77;3.53;;;;;;;12.14;69.40;100308.19;5115007;27;20019;-58
2022/07/17 01:34:34;;;;;;;10.15;3.20;;;;;;;12.12;69.06;100299.53;5111637;27;20019;-58
2022/07/17 01:36:59;;;;;;;8.13;2.95;;;;;;;12.13;69.73;100306.56;5091723;28;20065;-58
2022/07/17 01:42:09;;;;;;;12.20;3.83;;;;;;;11.80;70.54;100305.03;5109374;27;20030;-58
2022/07/17 01:44:34;;;;;;;14.20;4.20;;;;;;;11.85;70.04;100315.91;5115843;27;20069;-58
2022/07/17 01:47:00;;;;;;;12.98;3.70;;;;;;;11.91;71.08;100318.81;5108246;27;20024;-59
2022/07/17 01:49:25;;;;;;;12.07;3.85;;;;;;;12.09;70.04;100316.91;5109225;27;20039;-58
2022/07/17 01:51:51;;;;;;;12.23;4.30;;;;;;;12.06;70.20;100316.56;5106961;28;20459;-58
2022/07/17 01:54:16;;;;;;;7.35;4.07;;;;;;;11.97;69.47;100323.28;5107771;27;20389;-58
2022/07/17 01:56:41;;;;;;;9.43;4.28;;;;;;;11.85;69.86;100323.97;5108407;27;20061;-58
2022/07/17 01:59:07;;;;;;;11.95;4.43;;;;;;;11.89;71.60;100320.91;5107936;27;20027;-58
2022/07/17 02:01:33;;;;;;;9.48;3.75;;;;;;;11.89;70.03;100320.91;5092320;27;20020;-58
2022/07/17 02:03:58;;;;;;;10.00;3.50;;;;;;;11.70;71.18;100317.34;5122127;27;20035;-57
2022/07/17 02:06:24;;;;;;;10.15;3.67;;;;;;;11.61;71.39;100324.88;5105713;27;20046;-58
2022/07/17 02:08:50;;;;;;;14.27;3.60;;;;;;;11.60;72.02;100323.22;5091799;28;20031;-57
2022/07/17 02:11:16;;;;;;;8.40;3.60;;;;;;;11.64;72.03;100319.88;5123825;27;20023;-58
2022/07/17 02:13:42;;;;;;;16.40;4.60;;;;;;;11.74;72.05;100319.38;5110802;27;20036;-58
2022/07/17 02:16:07;;;;;;;13.50;4.10;;;;;;;11.77;71.83;100312.72;5105904;28;20085;-57
2022/07/17 02:18:33;;;;;;;15.85;4.45;;;;;;;11.54;70.63;100322.25;5090396;27;20027;-58
2022/07/17 02:20:58;;;;;;;15.68;4.82;;;;;;;11.37;71.28;100313.94;5108938;27;20098;-58
2022/07/17 02:23:24;;;;;;;18.48;5.28;;;;;;;11.02;74.24;100316.31;5113258;27;20026;-58
2022/07/17 02:25:49;;;;;;;9.75;3.50;;;;;;;11.01;74.52;100310.16;5104686;27;20032;-58
2022/07/17 02:28:14;;;;;;;7.68;3.40;;;;;;;11.33;73.27;100309.25;5085588;28;20058;-58
2022/07/17 02:30:40;;;;;;;12.45;3.80;;;;;;;11.40;72.71;100304.63;5083879;28;20028;-58
2022/07/17 02:33:06;;;;;;;11.35;4.18;;;;;;;11.43;72.72;100310.41;5114737;27;20024;-58
2022/07/17 02:35:32;;;;;;;21.20;3.88;;;;;;;11.44;73.12;100303.16;5111747;27;20110;-58
2022/07/17 02:37:57;;;;;;;11.73;4.00;;;;;;;11.53;72.65;100314.41;5090544;28;20434;-58
2022/07/17 02:40:23;;;;;;;97.80;15.85;;;;;;;11.37;71.93;100315.81;5110456;27;20023;-58
2022/07/17 02:42:48;;;;;;;212.15;29.98;;;;;;;11.23;72.94;100312.44;5111900;27;20035;-58
2022/07/17 02:45:14;;;;;;;548.63;85.05;;;;;;;10.79;73.87;100311.56;5092149;27;20015;-58
2022/07/17 02:47:39;;;;;;;220.90;34.97;;;;;;;10.95;74.47;100310.19;5109533;27;20019;-58
2022/07/17 02:50:06;;;;;;;206.00;30.95;;;;;;;11.00;73.93;100313.03;5090668;28;20490;-57
2022/07/17 02:52:32;;;;;;;257.10;37.50;;;;;;;10.88;75.05;100315.59;5106991;27;20016;-58
2022/07/17 02:54:57;;;;;;;273.17;40.13;;;;;;;10.87;72.54;100323.88;5106890;27;20053;-58
2022/07/17 02:57:22;;;;;;;273.38;42.47;;;;;;;10.63;74.69;100322.78;5108946;27;20023;-58
2022/07/17 02:59:48;;;;;;;261.67;38.75;;;;;;;10.27;75.34;100332.25;5107314;27;20386;-58
2022/07/17 03:02:13;;;;;;;158.30;26.52;;;;;;;10.41;76.45;100328.50;5105205;27;20488;-58
2022/07/17 03:04:39;;;;;;;139.10;22.77;;;;;;;10.66;75.54;100339.28;5115290;27;20533;-58
2022/07/17 03:07:04;;;;;;;246.18;36.67;;;;;;;10.64;74.35;100333.31;5102267;28;20027;-58
2022/07/17 03:09:30;;;;;;;253.13;40.55;;;;;;;10.62;74.75;100332.69;5105073;28;20410;-58
2022/07/17 03:11:55;;;;;;;95.15;18.15;;;;;;;10.56;75.69;100331.72;5106886;27;20580;-58
2022/07/17 03:14:21;;;;;;;75.90;15.75;;;;;;;10.32;77.17;100327.09;5112254;27;20530;-58
2022/07/17 03:16:46;;;;;;;27.30;7.43;;;;;;;10.41;77.13;100325.81;5063656;28;20031;-58
2022/07/17 03:19:11;;;;;;;16.50;4.45;;;;;;;10.38;77.31;100326.22;5083772;28;20058;-58
2022/07/17 03:21:37;;;;;;;9.95;4.10;;;;;;;10.34;76.96;100325.03;5101050;27;20053;-58
2022/07/17 03:24:03;;;;;;;12.77;4.68;;;;;;;10.47;76.37;100329.50;5104043;28;20023;-58
2022/07/17 03:26:28;;;;;;;21.75;4.93;;;;;;;10.64;76.96;100335.19;5091914;28;20038;-58
2022/07/17 03:28:54;;;;;;;10.45;4.30;;;;;;;10.65;76.59;100337.63;5104744;27;20063;-58
2022/07/17 03:31:19;;;;;;;17.63;4.45;;;;;;;10.50;76.03;100332.56;5091488;27;20374;-57
2022/07/17 03:33:45;;;;;;;12.57;4.68;;;;;;;10.64;76.91;100327.13;5115966;27;20028;-58
2022/07/17 03:36:10;;;;;;;15.90;4.53;;;;;;;10.76;77.22;100336.94;5108274;27;20053;-58
2022/07/17 03:38:36;;;;;;;16.92;5.13;;;;;;;10.80;76.42;100329.28;5111552;27;20019;-58
2022/07/17 03:41:01;;;;;;;17.85;5.30;;;;;;;10.87;77.14;100332.75;5110084;27;20016;-58
2022/07/17 03:43:26;;;;;;;18.17;5.10;;;;;;;10.93;75.83;100323.84;5103873;27;20881;-58
2022/07/17 03:45:52;;;;;;;12.48;6.00;;;;;;;11.14;74.46;100319.94;5082679;28;20462;-58
2022/07/17 03:48:17;;;;;;;15.25;4.80;;;;;;;11.25;73.55;100326.44;5099185;27;20019;-57
2022/07/17 03:50:43;;;;;;;23.13;7.18;;;;;;;11.96;70.79;100332.41;5098295;28;20031;-58
2022/07/17 03:53:08;;;;;;;25.55;7.18;;;;;;;12.23;68.52;100335.56;5109743;27;20028;-59
2022/07/17 03:55:34;;;;;;;44.90;8.70;;;;;;;11.90;69.44;100327.91;5106419;27;20024;-58
2022/07/17 03:57:59;;;;;;;37.83;7.68;;;;;;;12.57;66.53;100326.00;5106288;27;20024;-58
2022/07/17 04:00:25;;;;;;;30.73;7.25;;;;;;;13.72;62.49;100332.03;5103471;28;20023;-58
2022/07/17 04:02:50;;;;;;;32.72;7.85;;;;;;;14.13;61.10;100330.19;5112669;27;20440;-58
2022/07/17 04:05:15;;;;;;;31.42;7.78;;;;;;;15.12;58.10;100329.84;5113530;27;20031;-57
2022/07/17 04:07:41;;;;;;;20.08;6.45;;;;;;;15.38;57.06;100341.06;5108548;27;20046;-57
2022/07/17 04:10:07;;;;;;;21.15;5.88;;;;;;;15.21;56.57;100341.88;5083611;28;20378;-58
2022/07/17 04:12:33;;;;;;;16.63;5.28;;;;;;;16.31;54.17;100344.75;5111981;27;20027;-60
2022/07/17 04:14:58;;;;;;;17.73;5.55;;;;;;;16.67;52.68;100347.03;5085890;28;20055;-58
2022/07/17 04:17:24;;;;;;;23.02;5.85;;;;;;;16.79;52.25;100350.41;5105667;27;20031;-58
2022/07/17 04:19:49;;;;;;;23.85;6.40;;;;;;;15.85;54.26;100354.16;5105365;27;20028;-58
2022/07/17 04:22:15;;;;;;;19.30;6.45;;;;;;;17.31;50.60;100360.63;5108310;27;20038;-58
2022/07/17 04:24:40;;;;;;;27.15;6.70;;;;;;;17.00;51.35;100360.38;5108795;27;20028;-58
2022/07/17 04:27:06;;;;;;;22.77;6.00;;;;;;;17.29;50.81;100370.91;5109329;27;21093;-58
2022/07/17 04:29:31;;;;;;;22.33;5.72;;;;;;;18.17;48.81;100362.25;5089348;28;20034;-58
2022/07/17 04:31:57;;;;;;;25.15;5.95;;;;;;;19.05;46.49;100366.81;5113401;27;20027;-58
2022/07/17 04:34:22;;;;;;;16.52;4.75;;;;;;;18.54;47.34;100372.13;5111429;28;20023;-58
2022/07/17 04:36:48;;;;;;;24.33;5.15;;;;;;;18.98;46.51;100371.72;5111021;27;20023;-57
2022/07/17 04:39:13;;;;;;;17.52;4.78;;;;;;;18.88;46.17;100377.13;5086812;28;20020;-58
2022/07/17 04:41:38;;;;;;;15.10;4.80;;;;;;;19.48;45.15;100369.25;5103469;28;20042;-58
2022/07/17 04:44:04;;;;;;;23.83;5.15;;;;;;;20.01;43.63;100375.16;5111581;28;20031;-58
2022/07/17 04:46:29;;;;;;;12.60;4.25;;;;;;;19.95;43.60;100377.06;5105407;28;20027;-58
2022/07/17 04:48:55;;;;;;;14.75;4.32;;;;;;;20.51;42.53;100388.81;5103685;28;20020;-57
2022/07/17 04:51:20;;;;;;;18.05;3.95;;;;;;;19.91;43.43;100389.59;5112776;28;20030;-57
2022/07/17 04:53:46;;;;;;;10.27;3.65;;;;;;;20.01;43.74;100400.44;5104946;28;21033;-58
2022/07/17 04:56:14;;;;;;;13.20;3.70;;;;;;;20.08;43.95;100399.34;5114792;27;20040;-58
2022/07/17 04:58:39;;;;;;;10.25;3.92;;;;;;;20.02;43.77;100388.47;5095820;27;20107;-58
2022/07/17 05:01:05;;;;;;;12.73;4.10;;;;;;;20.82;42.23;100393.03;5107769;27;20489;-58
2022/07/17 05:03:30;;;;;;;11.52;3.67;;;;;;;20.58;43.27;100392.09;5090863;28;20032;-58
2022/07/17 05:05:55;;;;;;;11.38;4.15;;;;;;;21.39;41.60;100395.34;5103463;27;20028;-58
2022/07/17 05:08:21;;;;;;;9.90;3.70;;;;;;;21.68;41.34;100400.81;5109741;27;20024;-58
2022/07/17 05:10:46;;;;;;;11.90;3.60;;;;;;;21.81;41.35;100399.31;5110398;27;20025;-57
2022/07/17 05:13:12;;;;;;;12.90;3.95;;;;;;;22.10;40.22;100400.09;5111055;27;20032;-58
2022/07/17 05:15:38;;;;;;;11.27;3.90;;;;;;;22.95;38.58;100400.38;5107965;27;20016;-58
2022/07/17 05:18:03;;;;;;;11.98;4.03;;;;;;;23.04;38.77;100407.66;5110065;27;20368;-58
2022/07/17 05:20:28;;;;;;;13.00;4.20;;;;;;;23.30;38.04;100396.28;5103948;27;20049;-58
2022/07/17 05:22:54;;;;;;;8.57;3.72;;;;;;;22.76;39.29;100403.09;5107158;27;20032;-56
2022/07/17 05:25:19;;;;;;;15.38;4.30;;;;;;;22.92;38.18;100407.25;5112835;27;20027;-58
2022/07/17 05:27:45;;;;;;;14.38;3.85;;;;;;;23.96;37.03;100407.19;5088002;28;20028;-58
2022/07/17 05:30:10;;;;;;;12.70;3.80;;;;;;;24.04;37.17;100414.72;5083917;28;20435;-58
2022/07/17 05:32:36;;;;;;;13.85;4.15;;;;;;;25.05;35.41;100410.91;5108028;27;20027;-56
2022/07/17 05:35:01;;;;;;;11.52;3.80;;;;;;;24.98;35.99;100405.03;5110484;28;20429;-56
2022/07/17 05:37:27;;;;;;;11.85;4.13;;;;;;;24.58;36.26;100395.81;5094182;27;20027;-58
2022/07/17 05:39:52;;;;;;;10.40;3.90;;;;;;;25.41;35.10;100396.34;5092674;28;20450;-56
2022/07/17 05:42:17;;;;;;;11.13;3.92;;;;;;;26.03;34.71;100395.53;5106126;27;20101;-56
2022/07/17 05:44:43;;;;;;;12.10;4.00;;;;;;;25.72;34.84;100401.03;5091736;27;20096;-57
2022/07/17 05:47:08;;;;;;;14.68;3.95;;;;;;;25.24;34.98;100390.75;5108473;27;20034;-57
2022/07/17 05:49:34;;;;;;;13.52;3.85;;;;;;;25.57;34.38;100405.78;5110898;27;20055;-56
2022/07/17 05:51:59;;;;;;;11.43;3.95;;;;;;;26.32;33.57;100408.72;5112708;27;20488;-56
2022/07/17 05:54:24;;;;;;;10.23;3.45;;;;;;;26.92;33.76;100409.16;5103842;28;20028;-56
2022/07/17 05:56:50;;;;;;;12.48;3.40;;;;;;;27.88;31.63;100412.56;5114566;27;20036;-56
2022/07/17 05:59:17;;;;;;;11.20;4.00;;;;;;;26.79;32.44;100414.50;5116969;27;20038;-56
2022/07/17 06:01:42;;;;;;;11.60;4.05;;;;;;;26.36;33.75;100415.19;5106174;27;20031;-56
2022/07/17 06:04:08;;;;;;;8.82;4.00;;;;;;;26.62;33.12;100412.53;5105127;27;21051;-56
2022/07/17 06:06:33;;;;;;;13.02;4.13;;;;;;;26.31;33.73;100412.59;5105980;27;20156;-56
2022/07/17 06:09:00;;;;;;;13.73;3.97;;;;;;;26.41;34.48;100428.78;5109664;27;20106;-56
2022/07/17 06:11:26;;;;;;;13.68;4.47;;;;;;;26.72;34.24;100414.16;5117164;27;20035;-56
2022/07/17 06:13:51;;;;;;;20.20;4.63;;;;;;;27.06;32.70;100412.56;5105421;27;20047;-56
2022/07/17 06:16:16;;;;;;;11.30;4.53;;;;;;;27.46;33.06;100423.38;5112061;27;20443;-56
2022/07/17 06:18:42;;;;;;;12.98;4.00;;;;;;;26.21;34.39;100423.88;5100280;27;20089;-56
2022/07/17 06:21:07;;;;;;;13.63;4.03;;;;;;;27.03;33.52;100433.28;5102029;27;20032;-56
2022/07/17 06:23:33;;;;;;;12.98;4.38;;;;;;;27.09;33.93;100436.66;5101983;27;20026;-56
2022/07/17 06:25:58;;;;;;;13.10;4.25;;;;;;;25.69;35.41;100429.13;5093170;28;20650;-56
2022/07/17 06:28:24;;;;;;;10.73;3.88;;;;;;;27.62;32.98;100432.72;5105152;27;20012;-56
2022/07/17 06:30:49;;;;;;;10.90;3.97;;;;;;;27.30;33.48;100428.56;5102945;27;20051;-56
2022/07/17 06:33:15;;;;;;;12.85;4.15;;;;;;;28.01;32.51;100425.34;5096707;27;20035;-56
2022/07/17 06:35:40;;;;;;;13.95;3.97;;;;;;;28.27;31.69;100422.44;5079208;28;20027;-56
2022/07/17 06:38:05;;;;;;;11.10;4.47;;;;;;;27.44;32.34;100412.69;5102051;27;20047;-56
2022/07/17 06:40:31;;;;;;;10.25;4.07;;;;;;;26.77;33.82;100422.25;5087352;28;20031;-57
2022/07/17 06:42:56;;;;;;;13.57;4.25;;;;;;;26.95;33.45;100425.00;5113225;27;20027;-57
2022/07/17 06:45:22;;;;;;;13.13;4.38;;;;;;;28.77;31.80;100410.63;5116030;27;20023;-58
2022/07/17 06:47:47;;;;;;;22.48;4.40;;;;;;;28.32;31.58;100408.47;5101853;27;20027;-55
2022/07/17 06:50:13;;;;;;;9.20;4.10;;;;;;;27.13;33.21;100406.53;5106202;27;20496;-56
2022/07/17 06:52:38;;;;;;;13.98;4.72;;;;;;;27.04;33.74;100417.56;5107430;27;20024;-57
2022/07/17 06:55:04;;;;;;;13.00;4.22;;;;;;;28.67;31.60;100415.75;5109178;27;20144;-56
2022/07/17 06:57:31;;;;;;;10.95;4.18;;;;;;;28.39;31.26;100411.53;5101744;28;20028;-57
2022/07/17 06:59:57;;;;;;;11.63;3.90;;;;;;;28.19;31.56;100412.28;5104426;27;20027;-56
2022/07/17 07:02:22;;;;;;;13.18;3.85;;;;;;;29.06;31.41;100414.50;5102934;27;20073;-56
2022/07/17 07:04:48;;;;;;;13.18;4.40;;;;;;;28.99;30.18;100412.25;5099417;27;20047;-56
2022/07/17 07:07:13;;;;;;;15.18;3.70;;;;;;;29.11;30.63;100421.78;5100838;27;20139;-56
2022/07/17 07:09:38;;;;;;;13.82;4.05;;;;;;;29.68;30.04;100426.59;5123116;27;20027;-56
2022/07/17 07:12:04;;;;;;;13.40;4.30;;;;;;;28.60;30.93;100425.34;5120295;27;20057;-56
2022/07/17 07:14:29;;;;;;;10.93;3.80;;;;;;;28.49;31.32;100420.59;5098526;28;20391;-56
2022/07/17 07:16:55;;;;;;;18.63;4.35;;;;;;;28.40;31.73;100426.09;5119691;27;20027;-56
2022/07/17 07:19:20;;;;;;;12.70;4.15;;;;;;;28.66;30.90;100425.19;5115501;27;20052;-56
2022/07/17 07:21:45;;;;;;;12.63;4.00;;;;;;;29.82;29.03;100424.28;5121830;27;20068;-56
2022/07/17 07:24:11;;;;;;;10.38;4.00;;;;;;;27.65;31.86;100404.53;5116222;27;20034;-57
2022/07/17 07:26:36;;;;;;;12.88;4.07;;;;;;;27.64;31.71;100397.41;5103673;27;20046;-56
2022/07/17 07:29:02;;;;;;;15.82;3.95;;;;;;;28.42;30.81;100403.72;5118637;27;20458;-56
2022/07/17 07:31:27;;;;;;;12.55;3.90;;;;;;;28.58;30.72;100397.31;5117729;27;20380;-56
2022/07/17 07:33:53;;;;;;;13.98;3.85;;;;;;;28.22;30.96;100394.28;5116557;27;20035;-56
2022/07/17 07:36:18;;;;;;;9.55;3.85;;;;;;;28.69;30.78;100411.50;5128019;27;20024;-56
2022/07/17 07:38:45;;;;;;;11.30;3.95;;;;;;;29.67;29.58;100409.19;5119746;27;20035;-56
2022/07/17 07:41:10;;;;;;;12.60;3.92;;;;;;;29.92;29.16;100400.13;5114810;27;20035;-56
2022/07/17 07:43:36;;;;;;;10.20;3.80;;;;;;;28.38;31.03;100387.03;5120324;27;20034;-56
2022/07/17 07:46:02;;;;;;;16.90;3.70;;;;;;;28.90;30.92;100386.66;5121061;27;20035;-56
2022/07/17 07:48:28;;;;;;;13.90;3.97;;;;;;;28.98;30.15;100380.28;5116866;27;20404;-56
2022/07/17 07:50:53;;;;;;;12.55;3.97;;;;;;;28.88;30.52;100382.63;5113636;27;20015;-55
2022/07/17 07:53:19;;;;;;;9.40;3.55;;;;;;;30.28;29.21;100385.53;5101684;27;20485;-56
2022/07/17 07:55:44;;;;;;;13.38;3.65;;;;;;;30.53;28.84;100391.81;5119285;27;20035;-57
2022/07/17 07:58:11;;;;;;;10.23;3.85;;;;;;;31.04;28.02;100392.13;5122725;27;20023;-56
2022/07/17 08:00:37;;;;;;;11.80;3.40;;;;;;;29.39;30.03;100381.38;5122542;27;20034;-56
2022/07/17 08:03:03;;;;;;;12.80;3.58;;;;;;;30.22;29.19;100392.41;5119797;27;20050;-56
2022/07/17 08:05:28;;;;;;;12.73;3.63;;;;;;;30.03;29.10;100384.69;5102763;27;20397;-56
2022/07/17 08:07:54;;;;;;;11.30;3.63;;;;;;;29.28;29.91;100374.69;5117917;27;20504;-58
2022/07/17 08:10:19;;;;;;;15.75;3.63;;;;;;;28.98;30.78;100388.56;5111369;27;20502;-57
2022/07/17 08:12:44;;;;;;;9.43;3.58;;;;;;;30.41;29.28;100386.31;5120387;27;20034;-58
2022/07/17 08:15:10;;;;;;;11.23;3.33;;;;;;;29.61;30.08;100382.13;5119740;27;20030;-57
2022/07/17 08:17:35;;;;;;;10.57;3.00;;;;;;;29.75;29.72;100376.28;5117930;27;20027;-57
2022/07/17 08:20:01;;;;;;;12.18;3.67;;;;;;;30.37;28.87;100379.84;5081501;28;20027;-57
2022/07/17 08:22:26;;;;;;;11.32;3.60;;;;;;;30.24;29.14;100381.81;5115101;27;20027;-57
2022/07/17 08:24:52;;;;;;;9.77;3.30;;;;;;;29.29;30.63;100376.28;5120753;27;20045;-57
2022/07/17 08:27:17;;;;;;;10.25;3.40;;;;;;;30.93;28.51;100366.13;5104368;28;20028;-57
2022/07/17 08:29:42;;;;;;;9.95;3.13;;;;;;;30.26;29.46;100374.00;5098783;28;20028;-57
2022/07/17 08:32:08;;;;;;;15.43;3.28;;;;;;;29.79;29.92;100383.53;5097090;27;20027;-59
2022/07/17 08:34:33;;;;;;;10.63;3.15;;;;;;;30.22;28.80;100373.84;5116005;27;20020;-57
2022/07/17 08:36:59;;;;;;;11.45;3.13;;;;;;;29.27;29.20;100364.75;5120733;27;20034;-58
2022/07/17 08:39:24;;;;;;;12.23;3.35;;;;;;;30.10;28.52;100365.56;5117803;27;20064;-57
2022/07/17 08:41:50;;;;;;;13.20;3.55;;;;;;;28.44;30.56;100352.63;5118090;27;20020;-57
2022/07/17 08:44:15;;;;;;;10.48;3.15;;;;;;;28.85;30.33;100351.00;5099440;28;20026;-56
2022/07/17 08:46:41;;;;;;;10.85;3.30;;;;;;;28.95;30.98;100347.03;5102908;28;20038;-57
2022/07/17 08:49:07;;;;;;;11.48;3.03;;;;;;;29.08;30.30;100345.16;5115627;28;20099;-55
2022/07/17 08:51:33;;;;;;;11.57;3.20;;;;;;;28.27;30.85;100352.75;5117734;28;20529;-57
2022/07/17 08:53:58;;;;;;;10.63;3.28;;;;;;;26.73;32.19;100352.50;5118770;28;20049;-56
2022/07/17 08:56:24;;;;;;;7.57;3.03;;;;;;;27.23;32.52;100342.94;5107155;28;20106;-58
2022/07/17 08:58:50;;;;;;;11.25;3.22;;;;;;;28.65;30.36;100349.09;5115065;28;20072;-57
2022/07/17 09:01:17;;;;;;;11.73;3.08;;;;;;;29.26;29.11;100357.63;5117901;28;20084;-57
2022/07/17 09:04:06;;;;;;;14.05;3.22;;;;;;;29.97;29.38;100350.16;5098175;28;20043;-57
2022/07/17 09:06:34;;;;;;;19.58;3.67;;;;;;;29.85;29.23;100353.72;5116858;28;20031;-57
2022/07/17 09:09:03;;;;;;;12.45;3.20;;;;;;;30.94;27.04;100357.47;5095849;28;20042;-57
2022/07/17 09:11:29;;;;;;;;;;;;;;;30.04;28.47;100353.16;5117831;28;20500;-57
2022/07/17 09:13:55;;;;;;;12.45;2.83;;;;;;;28.27;28.48;100366.53;5118500;28;19924;-55
2022/07/17 09:16:20;;;;;;;10.93;2.50;;;;;;;27.01;29.98;100364.00;5120076;28;20026;-56
2022/07/17 09:18:46;;;;;;;11.90;2.75;;;;;;;27.20;29.86;100355.41;5077296;28;20494;-55
2022/07/17 09:21:22;;;;;;;8.65;2.45;;;;;;;28.46;28.68;100355.88;5116836;28;20062;-57
2022/07/17 09:24:06;;;;;;;8.05;2.40;;;;;;;27.09;29.62;100354.13;5101542;28;20077;-58
2022/07/17 09:26:35;;;;;;;14.70;2.70;;;;;;;28.26;28.53;100345.63;5100613;28;20423;-57
2022/07/17 09:29:01;;;;;;;10.80;2.70;;;;;;;26.93;29.92;100353.00;5116346;28;20027;-57
2022/07/17 09:31:27;;;;;;;9.63;2.53;;;;;;;27.04;29.45;100348.78;5088424;28;20272;-56
2022/07/17 09:33:52;;;;;;;10.95;2.63;;;;;;;26.77;29.69;100366.44;5098588;28;20038;-56
2022/07/17 09:36:18;;;;;;;8.38;2.53;;;;;;;27.84;28.24;100367.56;5116104;28;20024;-56
2022/07/17 09:38:44;;;;;;;7.13;2.63;;;;;;;26.73;30.92;100366.25;5096439;28;20072;-56
2022/07/17 09:41:15;;;;;;;7.40;2.35;;;;;;;28.78;26.82;100361.78;5108384;27;20381;-56
2022/07/17 09:43:48;;;;;;;8.95;2.20;;;;;;;27.44;29.54;100352.13;5095146;27;20111;-56
2022/07/17 09:46:18;;;;;;;14.18;2.58;;;;;;;28.66;28.90;100361.75;5103305;27;20035;-56
2022/07/17 09:48:47;;;;;;;9.73;2.63;;;;;;;28.32;29.69;100358.84;5123397;27;20466;-56
2022/07/17 09:51:24;;;;;;;10.10;3.08;;;;;;;28.28;29.12;100366.19;5124747;27;20092;-57
2022/07/17 09:53:51;;;;;;;10.68;2.60;;;;;;;28.81;27.93;100372.16;5118041;27;20110;-56
2022/07/17 09:56:21;;;;;;;9.07;2.60;;;;;;;29.16;27.62;100377.41;5106235;27;20039;-56
2022/07/17 09:59:10;;;;;;;9.13;2.30;;;;;;;28.41;27.79;100372.59;5120884;27;20031;-56
2022/07/17 10:01:36;;;;;;;6.13;2.20;;;;;;;28.57;28.42;100370.06;5117401;27;20031;-56
2022/07/17 10:04:02;;;;;;;10.60;2.78;;;;;;;29.37;26.66;100377.34;5102078;27;20040;-56
2022/07/17 10:06:28;;;;;;;10.95;2.90;;;;;;;29.10;27.63;100378.75;5099904;28;20031;-56
2022/07/17 10:08:54;;;;;;;37.58;19.80;;;;;;;29.91;26.68;100379.19;5122044;27;20071;-57
2022/07/17 10:11:21;;;;;;;13.25;3.78;;;;;;;28.38;27.75;100371.31;5124896;27;20011;-56
2022/07/17 10:13:47;;;;;;;11.43;2.70;;;;;;;26.47;30.65;100382.72;5118205;27;20023;-57
2022/07/17 10:16:13;;;;;;;10.57;3.75;;;;;;;28.08;28.50;100381.56;5101170;27;20031;-57
2022/07/17 10:18:41;;;;;;;26.08;12.35;;;;;;;29.36;26.54;100376.53;5116874;27;20474;-58
2022/07/17 10:21:17;;;;;;;17.40;8.20;;;;;;;27.73;28.42;100378.09;5125351;27;20027;-57
2022/07/17 10:23:43;;;;;;;12.93;3.20;;;;;;;26.99;27.07;100382.78;5117042;27;20015;-58
2022/07/17 10:26:09;;;;;;;8.90;2.38;;;;;;;26.75;28.13;100372.25;5089209;27;20050;-58
2022/07/17 10:28:42;;;;;;;8.93;3.20;;;;;;;28.24;26.95;100379.03;5101946;27;20359;-57
2022/07/17 10:31:08;;;;;;;7.97;2.50;;;;;;;27.36;26.86;100382.41;5119223;27;20028;-57
2022/07/17 10:33:34;;;;;;;9.93;2.58;;;;;;;27.23;28.46;100378.72;5123886;27;20075;-57
2022/07/17 10:35:59;;;;;;;15.00;2.58;;;;;;;27.73;25.81;100378.94;5067030;27;20089;-57
2022/07/17 10:38:26;;;;;;;8.45;2.67;;;;;;;26.68;27.83;100377.41;5121754;27;20035;-57
2022/07/17 10:41:01;;;;;;;8.77;2.65;;;;;;;26.21;27.13;100379.94;5103996;27;20130;-57
2022/07/17 10:43:26;;;;;;;8.20;2.50;;;;;;;24.87;28.40;100365.28;5124118;27;20034;-56
2022/07/17 10:45:52;;;;;;;8.60;2.60;;;;;;;26.10;27.81;100378.59;5101128;28;20034;-56
2022/07/17 10:48:19;;;;;;;5.97;2.33;;;;;;;26.01;26.75;100371.16;5116926;27;20027;-57
2022/07/17 10:50:45;;;;;;;7.82;2.30;;;;;;;24.64;26.91;100365.25;5112539;27;20042;-58
2022/07/17 10:53:17;;;;;;;7.57;2.10;;;;;;;25.91;25.86;100370.59;5119527;27;20032;-57
2022/07/17 10:55:44;;;;;;;10.20;2.35;;;;;;;26.04;25.03;100370.50;5122677;27;20028;-57
2022/07/17 10:58:15;;;;;;;4.25;2.25;;;;;;;26.67;25.40;100375.81;5119982;27;20027;-59
2022/07/17 11:00:41;;;;;;;8.85;2.22;;;;;;;26.58;23.54;100366.75;5113584;27;20031;-57
2022/07/17 11:03:11;;;;;;;7.95;2.10;;;;;;;26.93;22.84;100366.75;5104780;27;20050;-57
2022/07/17 11:05:36;;;;;;;8.25;2.45;;;;;;;27.42;22.79;100370.91;5120448;27;20035;-56
2022/07/17 11:08:03;;;;;;;6.30;2.30;;;;;;;27.81;19.40;100368.19;5127474;27;20027;-57
2022/07/17 11:10:28;;;;;;;8.10;2.28;;;;;;;27.80;20.56;100372.88;5103863;27;20101;-57
2022/07/17 11:13:08;;;;;;;11.40;2.30;;;;;;;28.60;20.49;100361.13;5103282;27;20032;-57
2022/07/17 11:15:51;;;;;;;5.93;2.45;;;;;;;28.10;20.42;100365.47;5121560;27;20488;-58
2022/07/17 11:18:19;;;;;;;15.10;2.55;;;;;;;28.24;20.37;100367.19;5113605;27;20430;-57